sensor_id;sensor_type;location;lat;lon;timestamp;temperature;humidity
72646;DHT22;60687;53.876;10.674;2023-02-24T00:00:34;4.60;87.10
72646;DHT22;60687;53.876;10.674;2023-02-24T00:10:47;4.60;85.00
72646;DHT22;60687;53.876;10.674;2023-02-24T00:20:49;4.60;84.90
72646;DHT22;60687;53.876;10.674;2023-02-24T00:31:06;4.70;86.20
72646;DHT22;60687;53.876;10.674;2023-02-24T00:41:13;4.70;86.30
72646;DHT22;60687;53.876;10.674;2023-02-24T00:51:18;4.70;88.20
72646;DHT22;60687;53.876;10.674;2023-02-24T01:01:25;4.70;89.20
72646;DHT22;60687;53.876;10.674;2023-02-24T01:11:34;4.70;90.70
72646;DHT22;60687;53.876;10.674;2023-02-24T01:21:58;4.70;91.30
72646;DHT22;60687;53.876;10.674;2023-02-24T01:32:19;4.70;92.20
72646;DHT22;60687;53.876;10.674;2023-02-24T01:42:27;4.70;92.80
72646;DHT22;60687;53.876;10.674;2023-02-24T01:52:33;4.70;93.00
72646;DHT22;60687;53.876;10.674;2023-02-24T02:02:42;4.70;93.30
72646;DHT22;60687;53.876;10.674;2023-02-24T02:12:50;4.70;93.50
72646;DHT22;60687;53.876;10.674;2023-02-24T02:23:30;4.70;93.50
72646;DHT22;60687;53.876;10.674;2023-02-24T02:44:34;4.70;93.00
72646;DHT22;60687;53.876;10.674;2023-02-24T02:54:44;4.60;93.10
72646;DHT22;60687;53.876;10.674;2023-02-24T03:04:53;4.60;92.80
72646;DHT22;60687;53.876;10.674;2023-02-24T03:15:09;4.60;93.50
72646;DHT22;60687;53.876;10.674;2023-02-24T03:25:12;4.60;94.80
72646;DHT22;60687;53.876;10.674;2023-02-24T03:35:35;4.60;94.30
72646;DHT22;60687;53.876;10.674;2023-02-24T04:30:33;4.40;95.50
72646;DHT22;60687;53.876;10.674;2023-02-24T04:41:15;4.40;96.00
72646;DHT22;60687;53.876;10.674;2023-02-24T04:52:35;4.40;94.80
72646;DHT22;60687;53.876;10.674;2023-02-24T05:59:07;4.50;94.40
72646;DHT22;60687;53.876;10.674;2023-02-24T06:09:13;4.50;95.90
72646;DHT22;60687;53.876;10.674;2023-02-24T06:19:16;4.50;98.20
72646;DHT22;60687;53.876;10.674;2023-02-24T06:29:21;4.40;99.90
72646;DHT22;60687;53.876;10.674;2023-02-24T06:39:26;4.30;99.90
72646;DHT22;60687;53.876;10.674;2023-02-24T06:49:28;4.30;99.90
72646;DHT22;60687;53.876;10.674;2023-02-24T06:59:33;4.10;99.90
72646;DHT22;60687;53.876;10.674;2023-02-24T07:09:51;4.10;99.90
72646;DHT22;60687;53.876;10.674;2023-02-24T07:20:01;4.00;99.90
72646;DHT22;60687;53.876;10.674;2023-02-24T07:30:12;4.00;99.90
72646;DHT22;60687;53.876;10.674;2023-02-24T07:40:17;3.90;99.90
72646;DHT22;60687;53.876;10.674;2023-02-24T07:50:22;3.90;99.90
72646;DHT22;60687;53.876;10.674;2023-02-24T08:00:26;3.80;99.90
72646;DHT22;60687;53.876;10.674;2023-02-24T08:10:29;3.70;99.90
72646;DHT22;60687;53.876;10.674;2023-02-24T08:20:38;3.70;99.90
72646;DHT22;60687;53.876;10.674;2023-02-24T08:30:52;3.70;99.90
72646;DHT22;60687;53.876;10.674;2023-02-24T08:40:56;3.80;99.90
72646;DHT22;60687;53.876;10.674;2023-02-24T08:51:11;3.80;99.90
72646;DHT22;60687;53.876;10.674;2023-02-24T09:01:25;3.80;99.90
72646;DHT22;60687;53.876;10.674;2023-02-24T09:11:27;3.80;99.90
72646;DHT22;60687;53.876;10.674;2023-02-24T09:21:35;3.80;99.90
72646;DHT22;60687;53.876;10.674;2023-02-24T09:32:06;3.90;99.90
72646;DHT22;60687;53.876;10.674;2023-02-24T09:42:14;3.90;99.90
72646;DHT22;60687;53.876;10.674;2023-02-24T09:52:32;3.90;99.90
72646;DHT22;60687;53.876;10.674;2023-02-24T10:02:53;3.90;99.90
72646;DHT22;60687;53.876;10.674;2023-02-24T10:13:11;4.00;99.90
72646;DHT22;60687;53.876;10.674;2023-02-24T10:23:21;4.00;99.90
72646;DHT22;60687;53.876;10.674;2023-02-24T10:33:35;4.10;99.90
72646;DHT22;60687;53.876;10.674;2023-02-24T10:43:52;4.20;99.90
72646;DHT22;60687;53.876;10.674;2023-02-24T10:54:05;4.20;99.90
72646;DHT22;60687;53.876;10.674;2023-02-24T11:04:33;4.30;99.90
72646;DHT22;60687;53.876;10.674;2023-02-24T11:14:56;4.40;99.90
72646;DHT22;60687;53.876;10.674;2023-02-24T11:25:24;4.40;99.90
72646;DHT22;60687;53.876;10.674;2023-02-24T11:35:33;4.50;99.90
72646;DHT22;60687;53.876;10.674;2023-02-24T11:45:44;4.60;99.90
72646;DHT22;60687;53.876;10.674;2023-02-24T11:56:01;4.70;99.90
72646;DHT22;60687;53.876;10.674;2023-02-24T12:06:41;4.80;99.90
72646;DHT22;60687;53.876;10.674;2023-02-24T12:16:54;4.90;99.90
72646;DHT22;60687;53.876;10.674;2023-02-24T12:27:12;5.00;99.90
72646;DHT22;60687;53.876;10.674;2023-02-24T12:37:44;5.20;99.90
72646;DHT22;60687;53.876;10.674;2023-02-24T12:48:00;5.40;99.90
72646;DHT22;60687;53.876;10.674;2023-02-24T12:58:29;5.50;99.90
72646;DHT22;60687;53.876;10.674;2023-02-24T13:09:16;5.70;99.90
72646;DHT22;60687;53.876;10.674;2023-02-24T13:19:28;5.80;99.90
72646;DHT22;60687;53.876;10.674;2023-02-24T13:29:54;5.90;99.90
72646;DHT22;60687;53.876;10.674;2023-02-24T13:40:21;6.10;99.90
72646;DHT22;60687;53.876;10.674;2023-02-24T13:50:34;6.30;99.90
72646;DHT22;60687;53.876;10.674;2023-02-24T14:00:51;6.50;99.90
72646;DHT22;60687;53.876;10.674;2023-02-24T14:11:09;6.50;99.90
72646;DHT22;60687;53.876;10.674;2023-02-24T14:31:56;6.00;99.90
72646;DHT22;60687;53.876;10.674;2023-02-24T14:42:11;6.10;99.90
72646;DHT22;60687;53.876;10.674;2023-02-24T14:52:20;6.20;99.90
72646;DHT22;60687;53.876;10.674;2023-02-24T15:02:32;6.30;99.90
72646;DHT22;60687;53.876;10.674;2023-02-24T15:12:42;6.30;99.90
72646;DHT22;60687;53.876;10.674;2023-02-24T15:22:50;6.30;99.90
72646;DHT22;60687;53.876;10.674;2023-02-24T15:33:00;6.40;99.90
72646;DHT22;60687;53.876;10.674;2023-02-24T15:43:16;6.50;99.90
72646;DHT22;60687;53.876;10.674;2023-02-24T15:53:34;6.50;99.90
72646;DHT22;60687;53.876;10.674;2023-02-24T16:03:36;6.50;99.90
72646;DHT22;60687;53.876;10.674;2023-02-24T16:13:42;6.40;99.90
72646;DHT22;60687;53.876;10.674;2023-02-24T16:23:46;6.40;99.90
72646;DHT22;60687;53.876;10.674;2023-02-24T16:33:56;6.30;99.90
72646;DHT22;60687;53.876;10.674;2023-02-24T16:44:05;6.20;99.90
72646;DHT22;60687;53.876;10.674;2023-02-24T16:54:43;6.10;99.90
72646;DHT22;60687;53.876;10.674;2023-02-24T17:05:08;6.10;99.90
72646;DHT22;60687;53.876;10.674;2023-02-24T17:15:23;6.00;99.90
72646;DHT22;60687;53.876;10.674;2023-02-24T17:25:29;6.00;99.90
72646;DHT22;60687;53.876;10.674;2023-02-24T17:35:42;5.90;99.90
72646;DHT22;60687;53.876;10.674;2023-02-24T17:46:41;5.90;99.90
72646;DHT22;60687;53.876;10.674;2023-02-24T18:10:20;5.70;99.90
72646;DHT22;60687;53.876;10.674;2023-02-24T18:55:36;5.40;99.90
72646;DHT22;60687;53.876;10.674;2023-02-24T19:05:51;5.40;99.90
72646;DHT22;60687;53.876;10.674;2023-02-24T19:16:10;5.30;99.90
72646;DHT22;60687;53.876;10.674;2023-02-24T19:26:21;5.20;99.90
72646;DHT22;60687;53.876;10.674;2023-02-24T19:36:35;5.20;99.90
72646;DHT22;60687;53.876;10.674;2023-02-24T19:47:27;5.20;99.90
72646;DHT22;60687;53.876;10.674;2023-02-24T19:57:45;5.10;99.90
72646;DHT22;60687;53.876;10.674;2023-02-24T20:08:04;5.10;99.90
72646;DHT22;60687;53.876;10.674;2023-02-24T20:18:12;5.10;99.90
72646;DHT22;60687;53.876;10.674;2023-02-24T20:28:14;5.10;99.90
72646;DHT22;60687;53.876;10.674;2023-02-24T20:38:19;5.10;99.90
72646;DHT22;60687;53.876;10.674;2023-02-24T20:48:25;5.20;99.90
72646;DHT22;60687;53.876;10.674;2023-02-24T20:58:36;5.10;99.90
72646;DHT22;60687;53.876;10.674;2023-02-24T21:08:41;5.10;99.90
72646;DHT22;60687;53.876;10.674;2023-02-24T21:18:56;5.10;99.90
72646;DHT22;60687;53.876;10.674;2023-02-24T21:29:08;5.00;96.00
72646;DHT22;60687;53.876;10.674;2023-02-24T21:39:17;4.90;98.70
72646;DHT22;60687;53.876;10.674;2023-02-24T21:49:23;4.80;99.90
72646;DHT22;60687;53.876;10.674;2023-02-24T21:59:28;4.60;99.90
72646;DHT22;60687;53.876;10.674;2023-02-24T22:09:38;4.40;99.90
72646;DHT22;60687;53.876;10.674;2023-02-24T22:19:48;4.40;99.90
72646;DHT22;60687;53.876;10.674;2023-02-24T22:29:53;4.40;99.90
72646;DHT22;60687;53.876;10.674;2023-02-24T22:39:58;4.30;99.90
72646;DHT22;60687;53.876;10.674;2023-02-24T22:50:01;4.30;99.90
72646;DHT22;60687;53.876;10.674;2023-02-24T23:00:16;4.20;99.90
72646;DHT22;60687;53.876;10.674;2023-02-24T23:10:42;4.10;99.90
72646;DHT22;60687;53.876;10.674;2023-02-24T23:21:19;3.90;99.90
72646;DHT22;60687;53.876;10.674;2023-02-24T23:31:31;3.80;99.90
72646;DHT22;60687;53.876;10.674;2023-02-24T23:41:44;3.70;99.90
72646;DHT22;60687;53.876;10.674;2023-02-24T23:52:23;3.60;99.90
